Time;durP1;ratioP1;P1;durP2;ratioP2;P2;SDS_P1;SDS_P2;PMS_P1;PMS_P2;Temp;Humidity;BMP_temperature;BMP_pressure;BME280_temperature;BME280_humidity;BME280_pressure;Samples;Min_cycle;Max_cycle;Signal;HPM_P1;HPM_P2
2024/01/27 00:04:53;;;;;;;5.00;1.90;;;;;;;;;;10460860;28;20036;-78
2024/01/27 00:09:54;;;;;;;5.20;2.20;;;;;;;;;;10454746;28;20033;-78
2024/01/27 00:15:01;;;;;;;5.90;1.73;;;;;;;;;;10445774;28;20030;-79
2024/01/27 00:20:02;;;;;;;5.07;1.60;;;;;;;;;;10453161;28;20035;-78
2024/01/27 00:25:04;;;;;;;8.97;2.23;;;;;;;;;;10456836;28;20029;-78
2024/01/27 00:30:05;;;;;;;13.00;1.83;;;;;;;;;;10449793;28;20044;-78
2024/01/27 00:35:09;;;;;;;6.00;1.73;;;;;;;;;;10453598;28;20082;-78
2024/01/27 00:40:11;;;;;;;5.43;1.53;;;;;;;;;;10421483;28;20098;-77
2024/01/27 00:45:12;;;;;;;6.73;1.70;;;;;;;;;;10452155;28;20611;-76
2024/01/27 00:50:13;;;;;;;4.60;1.30;;;;;;;;;;10444519;28;20055;-77
2024/01/27 00:55:14;;;;;;;8.83;1.47;;;;;;;;;;10444453;28;20064;-81
2024/01/27 01:00:15;;;;;;;8.87;2.00;;;;;;;;;;10448188;28;20021;-77
2024/01/27 01:05:16;;;;;;;10.47;1.87;;;;;;;;;;10437992;28;20039;-77
2024/01/27 01:10:17;;;;;;;6.47;1.50;;;;;;;;;;10444121;28;20025;-80
2024/01/27 01:15:18;;;;;;;9.53;2.00;;;;;;;;;;10447334;28;20050;-80
2024/01/27 01:20:19;;;;;;;10.03;2.23;;;;;;;;;;10443219;28;20036;-77
2024/01/27 01:25:20;;;;;;;9.93;1.87;;;;;;;;;;10451042;28;20027;-79
2024/01/27 01:30:21;;;;;;;9.40;1.70;;;;;;;;;;10449555;28;20095;-77
2024/01/27 01:35:22;;;;;;;7.60;1.50;;;;;;;;;;10467324;28;20078;-78
2024/01/27 01:40:23;;;;;;;9.60;1.83;;;;;;;;;;10442222;28;20090;-79
2024/01/27 01:45:24;;;;;;;10.93;2.20;;;;;;;;;;10460696;28;20086;-78
2024/01/27 01:50:25;;;;;;;6.90;1.93;;;;;;;;;;10470301;28;20688;-77
2024/01/27 01:55:26;;;;;;;5.33;1.77;;;;;;;;;;10444068;28;20507;-78
2024/01/27 02:00:27;;;;;;;5.00;1.43;;;;;;;;;;10456241;28;20115;-80
2024/01/27 02:05:28;;;;;;;8.70;2.07;;;;;;;;;;10475591;28;20801;-78
2024/01/27 02:10:36;;;;;;;9.67;2.00;;;;;;;;;;10455943;28;20052;-77
2024/01/27 02:15:37;;;;;;;13.33;2.57;;;;;;;;;;10454816;28;20148;-77
2024/01/27 02:20:38;;;;;;;9.77;2.10;;;;;;;;;;10449724;28;20047;-78
2024/01/27 02:25:39;;;;;;;8.67;2.60;;;;;;;;;;10441426;28;20040;-77
2024/01/27 02:30:40;;;;;;;10.57;2.20;;;;;;;;;;10446419;28;20036;-78
2024/01/27 02:35:42;;;;;;;8.37;2.57;;;;;;;;;;10433559;28;20061;-78
2024/01/27 02:40:43;;;;;;;10.00;2.00;;;;;;;;;;10421624;28;20033;-77
2024/01/27 02:45:51;;;;;;;13.80;3.47;;;;;;;;;;10431651;28;20032;-80
2024/01/27 02:50:52;;;;;;;12.70;2.73;;;;;;;;;;10440548;28;20040;-79
2024/01/27 02:55:53;;;;;;;11.60;2.67;;;;;;;;;;10457162;28;20035;-78
2024/01/27 03:00:54;;;;;;;12.53;2.40;;;;;;;;;;10420957;28;20650;-77
2024/01/27 03:05:55;;;;;;;6.77;2.10;;;;;;;;;;10428214;28;20034;-76
2024/01/27 03:10:56;;;;;;;6.30;2.00;;;;;;;;;;10451777;28;20044;-78
2024/01/27 03:15:57;;;;;;;8.97;2.07;;;;;;;;;;10444362;28;20691;-77
2024/01/27 03:20:58;;;;;;;12.47;2.63;;;;;;;;;;10453646;28;20108;-79
2024/01/27 03:25:59;;;;;;;9.07;2.30;;;;;;;;;;10434309;28;20044;-77
2024/01/27 03:31:00;;;;;;;13.17;2.30;;;;;;;;;;10434868;28;20037;-78
2024/01/27 03:36:11;;;;;;;9.00;2.30;;;;;;;;;;10455879;28;20056;-77
2024/01/27 03:41:12;;;;;;;12.03;2.57;;;;;;;;;;10445386;28;20029;-78
2024/01/27 03:46:13;;;;;;;9.47;2.13;;;;;;;;;;10451069;28;20033;-78
2024/01/27 03:51:14;;;;;;;12.57;4.27;;;;;;;;;;10467275;28;20045;-77
2024/01/27 03:56:15;;;;;;;13.13;3.10;;;;;;;;;;10439637;28;20033;-78
2024/01/27 04:01:16;;;;;;;11.40;3.07;;;;;;;;;;10458611;28;20055;-77
2024/01/27 04:06:24;;;;;;;18.30;3.57;;;;;;;;;;10451296;28;20039;-77
2024/01/27 04:11:25;;;;;;;17.93;3.93;;;;;;;;;;10459690;28;20495;-79
2024/01/27 04:16:26;;;;;;;10.57;3.10;;;;;;;;;;10440436;28;20037;-79
2024/01/27 04:21:27;;;;;;;18.63;4.77;;;;;;;;;;10443290;28;20120;-78
2024/01/27 04:26:28;;;;;;;9.03;2.70;;;;;;;;;;10457123;28;20031;-78
2024/01/27 04:31:31;;;;;;;12.33;4.13;;;;;;;;;;10441069;28;20053;-78
2024/01/27 04:36:32;;;;;;;13.33;3.33;;;;;;;;;;10440645;28;20066;-80
2024/01/27 04:41:33;;;;;;;13.43;3.50;;;;;;;;;;10438312;28;20468;-78
2024/01/27 04:46:34;;;;;;;14.40;3.30;;;;;;;;;;10459292;28;20037;-77
2024/01/27 04:51:35;;;;;;;17.00;4.20;;;;;;;;;;10469524;28;20531;-77
2024/01/27 04:56:36;;;;;;;14.97;3.63;;;;;;;;;;10449740;28;20025;-80
2024/01/27 05:01:37;;;;;;;12.27;3.50;;;;;;;;;;10446980;28;20025;-78
2024/01/27 05:06:41;;;;;;;11.80;3.83;;;;;;;;;;10448921;28;20864;-80
2024/01/27 05:11:45;;;;;;;13.00;3.33;;;;;;;;;;10449444;28;20036;-78
2024/01/27 05:16:46;;;;;;;13.63;3.00;;;;;;;;;;10451090;28;20030;-78
2024/01/27 05:21:47;;;;;;;9.23;3.83;;;;;;;;;;10439228;28;20575;-78
2024/01/27 05:26:48;;;;;;;12.77;3.07;;;;;;;;;;10439847;28;20052;-78
2024/01/27 05:31:49;;;;;;;10.70;3.00;;;;;;;;;;10437935;28;20036;-80
2024/01/27 05:36:50;;;;;;;10.43;3.57;;;;;;;;;;10460171;28;20491;-81
2024/01/27 05:41:51;;;;;;;13.93;3.40;;;;;;;;;;10448678;28;20056;-78
2024/01/27 05:46:52;;;;;;;19.77;4.23;;;;;;;;;;10436521;28;20033;-78
2024/01/27 05:51:53;;;;;;;14.03;3.90;;;;;;;;;;10433667;28;20783;-79
2024/01/27 05:56:54;;;;;;;16.70;3.60;;;;;;;;;;10440590;28;20033;-78
2024/01/27 06:01:57;;;;;;;10.83;2.87;;;;;;;;;;10436628;28;20045;-78
2024/01/27 06:06:58;;;;;;;11.70;2.60;;;;;;;;;;10454715;28;20025;-80
2024/01/27 06:12:03;;;;;;;15.27;3.20;;;;;;;;;;10441851;28;20549;-78
2024/01/27 06:17:05;;;;;;;18.20;3.07;;;;;;;;;;10449797;28;20033;-79
2024/01/27 06:22:06;;;;;;;25.77;8.63;;;;;;;;;;10471645;28;20036;-82
2024/01/27 06:27:07;;;;;;;18.20;4.33;;;;;;;;;;10456144;28;20058;-79
2024/01/27 06:32:08;;;;;;;22.07;4.40;;;;;;;;;;10484379;28;20407;-79
2024/01/27 06:37:09;;;;;;;19.13;4.23;;;;;;;;;;10474061;22;20067;-82
2024/01/27 06:42:10;;;;;;;24.07;7.23;;;;;;;;;;10435427;28;20116;-82
2024/01/27 06:47:11;;;;;;;36.40;15.13;;;;;;;;;;10441229;28;20037;-78
2024/01/27 06:52:12;;;;;;;17.53;4.40;;;;;;;;;;10443343;28;20163;-78
2024/01/27 06:57:23;;;;;;;10.93;3.40;;;;;;;;;;10444298;28;20033;-81
2024/01/27 07:02:26;;;;;;;13.57;4.40;;;;;;;;;;10461719;28;20029;-82
2024/01/27 07:07:27;;;;;;;17.63;4.83;;;;;;;;;;10450946;28;20052;-78
2024/01/27 07:12:29;;;;;;;15.37;3.67;;;;;;;;;;10454478;28;20076;-80
2024/01/27 07:17:30;;;;;;;13.50;4.17;;;;;;;;;;10444103;28;20029;-78
2024/01/27 07:22:31;;;;;;;13.13;4.07;;;;;;;;;;10448983;28;20111;-79
2024/01/27 07:27:33;;;;;;;13.57;3.57;;;;;;;;;;10485882;28;20066;-81
2024/01/27 07:32:33;;;;;;;12.87;3.73;;;;;;;;;;10459147;28;20066;-81
2024/01/27 07:37:34;;;;;;;13.73;4.07;;;;;;;;;;10445545;28;20057;-78
2024/01/27 07:42:36;;;;;;;11.07;3.27;;;;;;;;;;10434356;28;20033;-81
2024/01/27 07:47:37;;;;;;;13.70;3.73;;;;;;;;;;10429584;28;20055;-78
2024/01/27 07:52:38;;;;;;;18.20;4.10;;;;;;;;;;10427905;28;20044;-79
2024/01/27 07:57:39;;;;;;;10.07;3.70;;;;;;;;;;10451992;28;20083;-81
2024/01/27 08:02:40;;;;;;;11.50;5.13;;;;;;;;;;10456918;22;20056;-79
2024/01/27 08:07:41;;;;;;;14.87;4.63;;;;;;;;;;10445045;28;20029;-77
2024/01/27 08:12:42;;;;;;;13.13;3.70;;;;;;;;;;10446545;28;20098;-79
2024/01/27 08:17:50;;;;;;;16.57;4.30;;;;;;;;;;10447665;28;20497;-79
2024/01/27 08:22:51;;;;;;;21.30;6.53;;;;;;;;;;10447084;28;20037;-79
2024/01/27 08:27:52;;;;;;;20.33;6.10;;;;;;;;;;10446578;28;20523;-78
2024/01/27 08:32:53;;;;;;;18.73;5.07;;;;;;;;;;10436814;28;20033;-78
2024/01/27 08:37:54;;;;;;;42.20;11.53;;;;;;;;;;10447179;28;20140;-79
2024/01/27 08:42:55;;;;;;;17.40;4.77;;;;;;;;;;10445524;28;20036;-79
2024/01/27 08:47:56;;;;;;;16.30;4.10;;;;;;;;;;10445575;28;20032;-78
2024/01/27 08:52:57;;;;;;;26.80;8.53;;;;;;;;;;10445124;28;20384;-79
2024/01/27 08:57:58;;;;;;;28.50;8.60;;;;;;;;;;10446062;28;20032;-80
2024/01/27 09:02:59;;;;;;;22.33;7.73;;;;;;;;;;10440131;28;20072;-81
2024/01/27 09:08:00;;;;;;;33.40;9.70;;;;;;;;;;10437988;28;20067;-77
2024/01/27 09:13:02;;;;;;;21.23;8.17;;;;;;;;;;10443726;28;20123;-80
2024/01/27 09:18:04;;;;;;;32.63;11.10;;;;;;;;;;10445009;28;20025;-78
2024/01/27 09:23:05;;;;;;;19.57;8.30;;;;;;;;;;10439888;28;20121;-81
2024/01/27 09:28:06;;;;;;;35.60;11.40;;;;;;;;;;10444793;28;20056;-79
2024/01/27 09:33:07;;;;;;;33.40;12.63;;;;;;;;;;10443853;28;20382;-78
2024/01/27 09:38:11;;;;;;;38.20;14.13;;;;;;;;;;10433477;28;20035;-78
2024/01/27 09:43:14;;;;;;;32.93;11.83;;;;;;;;;;10444072;28;20025;-78
2024/01/27 09:48:15;;;;;;;34.50;11.93;;;;;;;;;;10433340;28;20036;-79
2024/01/27 09:53:23;;;;;;;26.80;10.50;;;;;;;;;;10438364;28;20098;-78
2024/01/27 09:58:26;;;;;;;36.73;12.13;;;;;;;;;;10441650;28;20029;-80
2024/01/27 10:03:43;;;;;;;25.87;10.53;;;;;;;;;;10431365;28;20067;-78
2024/01/27 10:08:52;;;;;;;29.57;10.87;;;;;;;;;;10442613;28;20029;-79
2024/01/27 10:13:57;;;;;;;26.40;10.77;;;;;;;;;;10443241;28;20036;-78
2024/01/27 10:19:04;;;;;;;28.87;10.57;;;;;;;;;;10443494;28;20032;-79
2024/01/27 10:24:13;;;;;;;53.43;22.90;;;;;;;;;;10430485;28;20154;-78
2024/01/27 10:29:14;;;;;;;31.97;13.17;;;;;;;;;;10441340;28;20064;-82
2024/01/27 10:34:19;;;;;;;41.20;14.07;;;;;;;;;;10442607;28;20045;-82
2024/01/27 10:39:20;;;;;;;44.22;11.35;;;;;;;;;;10442534;28;20035;-78
2024/01/27 10:44:21;;;;;;;44.17;15.23;;;;;;;;;;10443422;28;20036;-79
2024/01/27 10:49:22;;;;;;;35.93;11.30;;;;;;;;;;10442780;28;20016;-79
2024/01/27 10:54:25;;;;;;;44.33;13.23;;;;;;;;;;10440183;28;20036;-79
2024/01/27 10:59:27;;;;;;;49.40;18.00;;;;;;;;;;10450295;28;20131;-79
2024/01/27 11:04:36;;;;;;;48.83;19.57;;;;;;;;;;10432160;28;20520;-79
2024/01/27 11:09:37;;;;;;;46.03;18.43;;;;;;;;;;10449176;28;20033;-81
2024/01/27 11:14:38;;;;;;;28.87;11.30;;;;;;;;;;10436582;28;20040;-80
2024/01/27 11:19:40;;;;;;;32.83;9.93;;;;;;;;;;10447017;28;20036;-78
2024/01/27 11:24:41;;;;;;;28.20;11.60;;;;;;;;;;10449776;28;20071;-78
2024/01/27 11:29:48;;;;;;;36.33;14.13;;;;;;;;;;10446463;28;20039;-79
2024/01/27 11:34:49;;;;;;;32.60;13.00;;;;;;;;;;10435742;28;20041;-81
2024/01/27 11:39:52;;;;;;;53.47;20.93;;;;;;;;;;10432915;28;20368;-79
2024/01/27 11:44:53;;;;;;;31.00;10.43;;;;;;;;;;10449131;28;20098;-80
2024/01/27 11:49:55;;;;;;;27.10;9.97;;;;;;;;;;10426788;28;20090;-78
2024/01/27 11:54:59;;;;;;;37.77;12.23;;;;;;;;;;10445844;28;20064;-78
2024/01/27 12:00:00;;;;;;;24.67;7.60;;;;;;;;;;10448559;28;20060;-78
2024/01/27 12:05:08;;;;;;;24.73;7.50;;;;;;;;;;10446732;28;20139;-79
2024/01/27 12:10:09;;;;;;;26.50;9.07;;;;;;;;;;10447823;28;20033;-81
2024/01/27 12:15:19;;;;;;;23.87;6.70;;;;;;;;;;10447947;28;20045;-79
2024/01/27 12:20:23;;;;;;;24.70;8.93;;;;;;;;;;10427348;28;20032;-79
2024/01/27 12:25:24;;;;;;;22.70;7.17;;;;;;;;;;10444657;28;20686;-79
2024/01/27 12:30:25;;;;;;;26.83;9.57;;;;;;;;;;10446829;28;20166;-80
2024/01/27 12:35:27;;;;;;;32.50;12.40;;;;;;;;;;10432366;28;20029;-78
2024/01/27 12:40:28;;;;;;;30.53;11.30;;;;;;;;;;10436800;28;20036;-78
2024/01/27 12:45:29;;;;;;;25.33;9.20;;;;;;;;;;10445426;28;20072;-80
2024/01/27 12:50:30;;;;;;;35.57;13.33;;;;;;;;;;10442041;28;20124;-80
2024/01/27 12:55:31;;;;;;;65.33;26.47;;;;;;;;;;10445140;28;20037;-80
2024/01/27 13:00:32;;;;;;;37.77;16.00;;;;;;;;;;10445630;28;20032;-79
2024/01/27 13:05:34;;;;;;;24.90;11.10;;;;;;;;;;10431961;28;20136;-78
2024/01/27 13:10:35;;;;;;;32.23;12.30;;;;;;;;;;10438074;28;20068;-78
2024/01/27 13:15:36;;;;;;;44.00;17.37;;;;;;;;;;10438711;28;20463;-78
2024/01/27 13:20:37;;;;;;;32.53;12.17;;;;;;;;;;10443874;28;20028;-78
2024/01/27 13:25:38;;;;;;;30.63;10.40;;;;;;;;;;10455744;22;20061;-80
2024/01/27 13:30:45;;;;;;;37.13;11.97;;;;;;;;;;10452695;28;20056;-78
2024/01/27 13:35:47;;;;;;;22.10;8.63;;;;;;;;;;10447637;28;20036;-78
2024/01/27 13:40:47;;;;;;;24.60;9.43;;;;;;;;;;10436016;28;20029;-78
2024/01/27 13:45:48;;;;;;;23.70;8.03;;;;;;;;;;10400215;28;20791;-80
2024/01/27 13:50:50;;;;;;;27.70;8.57;;;;;;;;;;10433806;28;20029;-79
2024/01/27 13:55:51;;;;;;;28.10;11.17;;;;;;;;;;10430867;28;20041;-78
2024/01/27 14:00:52;;;;;;;31.83;11.33;;;;;;;;;;10420126;28;20024;-80
2024/01/27 14:05:53;;;;;;;31.77;11.70;;;;;;;;;;10415848;28;20960;-79
2024/01/27 14:10:54;;;;;;;42.10;16.23;;;;;;;;;;10433604;28;20036;-78
2024/01/27 14:15:55;;;;;;;39.53;12.43;;;;;;;;;;10424520;28;20533;-81
2024/01/27 14:20:56;;;;;;;37.67;15.17;;;;;;;;;;10436681;28;20027;-78
2024/01/27 14:25:57;;;;;;;33.30;12.00;;;;;;;;;;10399986;28;20147;-79
2024/01/27 14:30:58;;;;;;;32.70;12.87;;;;;;;;;;10412910;28;20110;-81
2024/01/27 14:35:59;;;;;;;41.67;13.53;;;;;;;;;;10433939;28;20800;-79
2024/01/27 14:41:00;;;;;;;26.50;11.20;;;;;;;;;;10438361;28;20423;-78
2024/01/27 14:46:01;;;;;;;28.07;10.47;;;;;;;;;;10408216;28;20056;-78
2024/01/27 14:51:03;;;;;;;32.57;10.03;;;;;;;;;;10436627;28;20041;-78
2024/01/27 14:56:05;;;;;;;37.70;10.57;;;;;;;;;;10413126;28;20025;-80
2024/01/27 15:01:06;;;;;;;37.33;10.37;;;;;;;;;;10403912;28;20083;-78
2024/01/27 15:06:08;;;;;;;28.63;8.77;;;;;;;;;;10409160;28;20645;-78
2024/01/27 15:11:09;;;;;;;34.97;9.90;;;;;;;;;;10437821;28;20037;-78
2024/01/27 15:16:11;;;;;;;25.67;8.40;;;;;;;;;;10410187;28;20037;-77
2024/01/27 15:21:13;;;;;;;26.10;8.73;;;;;;;;;;10440404;28;20092;-78
2024/01/27 15:26:14;;;;;;;24.73;8.17;;;;;;;;;;10410731;28;20078;-80
2024/01/27 15:31:15;;;;;;;28.33;8.60;;;;;;;;;;10402290;28;20721;-81
2024/01/27 15:36:17;;;;;;;31.37;7.77;;;;;;;;;;10433182;28;20040;-81
2024/01/27 15:41:18;;;;;;;32.00;8.57;;;;;;;;;;10424837;28;20025;-79
2024/01/27 15:46:19;;;;;;;32.47;9.27;;;;;;;;;;10436499;28;20086;-78
2024/01/27 15:51:20;;;;;;;30.77;9.10;;;;;;;;;;10408209;28;20120;-81
2024/01/27 15:56:21;;;;;;;29.40;9.23;;;;;;;;;;10397194;28;20116;-81
2024/01/27 16:01:29;;;;;;;31.60;8.97;;;;;;;;;;10393262;28;20022;-80
2024/01/27 16:06:30;;;;;;;29.63;9.13;;;;;;;;;;10411784;28;20045;-81
2024/01/27 16:11:31;;;;;;;32.77;11.73;;;;;;;;;;10406817;28;20388;-79
2024/01/27 16:16:32;;;;;;;35.87;12.27;;;;;;;;;;10401133;28;20040;-83
2024/01/27 16:21:33;;;;;;;35.87;11.47;;;;;;;;;;10405954;28;20111;-78
2024/01/27 16:26:34;;;;;;;33.73;11.80;;;;;;;;;;10403774;28;20066;-79
2024/01/27 16:31:35;;;;;;;29.70;10.90;;;;;;;;;;10403028;28;20124;-79
2024/01/27 16:36:37;;;;;;;31.60;9.73;;;;;;;;;;10403121;28;20047;-79
2024/01/27 16:41:45;;;;;;;30.43;10.53;;;;;;;;;;10408578;28;20485;-82
2024/01/27 16:46:46;;;;;;;28.93;10.90;;;;;;;;;;10410320;28;20038;-78
2024/01/27 16:51:51;;;;;;;30.50;10.20;;;;;;;;;;10416213;28;20041;-79
2024/01/27 16:56:53;;;;;;;28.37;10.17;;;;;;;;;;10382239;28;20033;-80
2024/01/27 17:01:54;;;;;;;31.27;8.20;;;;;;;;;;10399791;28;20083;-79
2024/01/27 17:06:55;;;;;;;26.17;9.13;;;;;;;;;;10403106;28;20033;-78
2024/01/27 17:11:56;;;;;;;23.77;7.07;;;;;;;;;;10379445;28;20096;-82
2024/01/27 17:16:57;;;;;;;26.03;8.93;;;;;;;;;;10400482;28;20033;-82
2024/01/27 17:21:58;;;;;;;30.30;8.97;;;;;;;;;;10403170;28;20065;-78
2024/01/27 17:27:00;;;;;;;28.43;9.07;;;;;;;;;;10400105;28;20115;-82
2024/01/27 17:32:01;;;;;;;33.67;9.07;;;;;;;;;;10403399;28;20044;-78
2024/01/27 17:37:02;;;;;;;21.03;7.20;;;;;;;;;;10405091;28;20040;-78
2024/01/27 17:42:03;;;;;;;22.10;7.10;;;;;;;;;;10403229;28;20487;-78
2024/01/27 17:47:04;;;;;;;22.73;7.33;;;;;;;;;;10408755;28;20583;-79
2024/01/27 17:52:05;;;;;;;21.07;7.13;;;;;;;;;;10404431;28;20041;-78
2024/01/27 17:57:07;;;;;;;26.57;7.63;;;;;;;;;;10405921;28;20033;-81
2024/01/27 18:02:09;;;;;;;20.20;6.40;;;;;;;;;;10401296;28;20041;-80
2024/01/27 18:07:10;;;;;;;29.17;6.97;;;;;;;;;;10403827;28;20044;-78
2024/01/27 18:12:11;;;;;;;20.30;7.30;;;;;;;;;;10408277;28;20041;-81
2024/01/27 18:17:13;;;;;;;25.03;6.60;;;;;;;;;;10409574;28;20505;-81
2024/01/27 18:22:14;;;;;;;29.33;7.33;;;;;;;;;;10418353;28;20033;-80
2024/01/27 18:27:16;;;;;;;17.00;6.37;;;;;;;;;;10407860;28;20067;-79
2024/01/27 18:32:17;;;;;;;23.70;6.90;;;;;;;;;;10403318;28;20061;-78
2024/01/27 18:37:18;;;;;;;20.03;5.77;;;;;;;;;;10464199;22;20060;-78
2024/01/27 18:42:19;;;;;;;14.93;5.30;;;;;;;;;;10473015;28;20032;-78
2024/01/27 18:47:20;;;;;;;27.43;6.00;;;;;;;;;;10420320;28;20444;-80
2024/01/27 18:52:21;;;;;;;19.47;5.57;;;;;;;;;;10433134;28;20053;-78
2024/01/27 18:57:22;;;;;;;20.03;5.60;;;;;;;;;;10445970;28;20025;-82
2024/01/27 19:02:23;;;;;;;19.70;6.43;;;;;;;;;;10443486;28;20036;-78
2024/01/27 19:07:24;;;;;;;23.07;6.67;;;;;;;;;;10444283;28;20037;-83
2024/01/27 19:12:25;;;;;;;19.80;6.50;;;;;;;;;;10444029;28;20039;-81
2024/01/27 19:17:26;;;;;;;22.53;7.13;;;;;;;;;;10462056;28;20431;-78
2024/01/27 19:22:27;;;;;;;22.17;7.37;;;;;;;;;;10455253;28;20171;-80
2024/01/27 19:27:30;;;;;;;28.50;8.57;;;;;;;;;;10443144;28;20128;-78
2024/01/27 19:32:37;;;;;;;28.77;8.37;;;;;;;;;;10450549;28;20029;-78
2024/01/27 19:37:38;;;;;;;26.17;7.50;;;;;;;;;;10402587;28;20402;-82
2024/01/27 19:42:40;;;;;;;25.63;7.47;;;;;;;;;;10411525;28;20043;-80
2024/01/27 19:47:41;;;;;;;28.67;8.57;;;;;;;;;;10391067;28;20033;-79
2024/01/27 19:52:41;;;;;;;24.47;6.13;;;;;;;;;;10425181;28;20767;-81
2024/01/27 19:57:42;;;;;;;29.37;7.17;;;;;;;;;;10408063;28;20033;-82
2024/01/27 20:02:50;;;;;;;21.03;7.07;;;;;;;;;;10404193;28;20120;-79
2024/01/27 20:07:51;;;;;;;22.80;7.07;;;;;;;;;;10409873;28;20087;-78
2024/01/27 20:12:56;;;;;;;15.70;5.87;;;;;;;;;;10405416;28;20472;-79
2024/01/27 20:17:58;;;;;;;21.70;7.30;;;;;;;;;;10383232;28;20033;-79
2024/01/27 20:22:59;;;;;;;31.03;8.90;;;;;;;;;;10405483;28;20029;-80
2024/01/27 20:28:00;;;;;;;24.47;7.60;;;;;;;;;;10406878;28;20036;-78
2024/01/27 20:33:01;;;;;;;19.73;6.00;;;;;;;;;;10404564;28;20564;-81
2024/01/27 20:38:02;;;;;;;13.43;4.47;;;;;;;;;;10432519;28;20118;-84
2024/01/27 20:43:06;;;;;;;16.77;4.80;;;;;;;;;;10446758;28;20115;-78
2024/01/27 20:48:13;;;;;;;19.53;5.73;;;;;;;;;;10437290;28;20032;-78
2024/01/27 20:53:14;;;;;;;20.10;5.57;;;;;;;;;;10454558;28;20044;-78
2024/01/27 20:58:15;;;;;;;20.77;6.57;;;;;;;;;;10460663;28;20089;-81
2024/01/27 21:03:19;;;;;;;20.00;5.73;;;;;;;;;;10445617;28;20047;-78
2024/01/27 21:08:20;;;;;;;18.90;5.50;;;;;;;;;;10445116;28;20036;-78
2024/01/27 21:13:21;;;;;;;21.70;7.70;;;;;;;;;;10445625;28;20115;-78
2024/01/27 21:18:25;;;;;;;20.13;5.80;;;;;;;;;;10437235;28;20033;-79
2024/01/27 21:23:26;;;;;;;24.77;6.40;;;;;;;;;;10455801;28;20691;-81
2024/01/27 21:28:27;;;;;;;22.33;6.20;;;;;;;;;;10450355;28;20044;-82
2024/01/27 21:33:28;;;;;;;22.50;6.73;;;;;;;;;;10456309;28;20048;-81
2024/01/27 21:38:29;;;;;;;28.67;7.13;;;;;;;;;;10442839;28;20111;-80
2024/01/27 21:43:37;;;;;;;28.33;8.00;;;;;;;;;;10444167;28;20553;-82
2024/01/27 21:48:38;;;;;;;30.13;8.40;;;;;;;;;;10445337;28;20028;-78
2024/01/27 21:53:40;;;;;;;27.47;9.17;;;;;;;;;;10428764;28;20091;-80
2024/01/27 21:58:41;;;;;;;50.63;21.50;;;;;;;;;;10444379;28;20079;-84
2024/01/27 22:03:43;;;;;;;48.87;18.10;;;;;;;;;;10443115;28;20068;-83
2024/01/27 22:08:44;;;;;;;41.43;14.77;;;;;;;;;;10442466;28;20032;-78
2024/01/27 22:13:46;;;;;;;58.07;20.87;;;;;;;;;;10442115;28;20076;-79
2024/01/27 22:18:54;;;;;;;57.83;21.47;;;;;;;;;;10443379;28;20032;-78
2024/01/27 22:23:55;;;;;;;79.20;34.73;;;;;;;;;;10442344;28;20032;-79
2024/01/27 22:28:56;;;;;;;57.77;23.90;;;;;;;;;;10446745;28;21471;-82
2024/01/27 22:34:03;;;;;;;66.07;30.20;;;;;;;;;;10446346;28;20055;-78
2024/01/27 22:39:04;;;;;;;91.40;39.10;;;;;;;;;;10392379;28;20100;-81
2024/01/27 22:44:05;;;;;;;89.40;36.37;;;;;;;;;;10401541;28;20377;-82
2024/01/27 22:49:06;;;;;;;73.20;30.17;;;;;;;;;;10399799;28;20039;-81
2024/01/27 22:54:07;;;;;;;64.33;24.43;;;;;;;;;;10400392;28;20041;-82
2024/01/27 22:59:08;;;;;;;61.10;22.53;;;;;;;;;;10414906;28;20124;-79
2024/01/27 23:04:10;;;;;;;61.77;22.70;;;;;;;;;;10408650;28;20044;-81
2024/01/27 23:09:11;;;;;;;59.80;23.87;;;;;;;;;;10408878;28;20501;-79
2024/01/27 23:14:12;;;;;;;82.87;31.03;;;;;;;;;;10402042;28;20041;-79
2024/01/27 23:19:13;;;;;;;67.47;27.30;;;;;;;;;;10407136;28;20519;-82
2024/01/27 23:24:14;;;;;;;74.17;32.87;;;;;;;;;;10409589;28;20257;-79
2024/01/27 23:29:15;;;;;;;81.77;32.73;;;;;;;;;;10406600;28;20037;-79
2024/01/27 23:34:16;;;;;;;46.33;19.23;;;;;;;;;;10405093;28;20045;-78
2024/01/27 23:39:17;;;;;;;56.10;23.13;;;;;;;;;;10404029;28;20037;-78
2024/01/27 23:44:19;;;;;;;81.33;30.97;;;;;;;;;;10408824;28;20048;-81
2024/01/27 23:49:20;;;;;;;79.00;32.47;;;;;;;;;;10406782;28;20120;-79
2024/01/27 23:54:21;;;;;;;63.50;28.17;;;;;;;;;;10407951;28;20511;-80
2024/01/27 23:59:22;;;;;;;98.63;40.70;;;;;;;;;;10412680;28;20043;-80
